Time;durP1;ratioP1;P1;durP2;ratioP2;P2;SDS_P1;SDS_P2;PMS_P1;PMS_P2;Temp;Humidity;BMP_temperature;BMP_pressure;BME280_temperature;BME280_humidity;BME280_pressure;Samples;Min_cycle;Max_cycle;Signal;HPM_P1;HPM_P2
2022/06/20 00:00:47;;;;;;;6.70;6.13;;;28.80;85.60;;;;;;5043005;28;20875;-83
2022/06/20 00:03:23;;;;;;;10.90;6.67;;;28.80;84.60;;;;;;5043844;28;20945;-83
2022/06/20 00:05:52;;;;;;;7.40;5.93;;;28.80;86.90;;;;;;5044012;28;20566;-83
2022/06/20 00:08:21;;;;;;;9.83;6.17;;;28.70;87.40;;;;;;5038398;28;20893;-83
2022/06/20 00:10:50;;;;;;;11.73;6.87;;;28.70;87.70;;;;;;5037920;28;20452;-82
2022/06/20 00:13:26;;;;;;;10.90;7.33;;;28.70;86.80;;;;;;5061965;28;20451;-83
2022/06/20 00:15:56;;;;;;;8.10;6.30;;;28.60;85.30;;;;;;5048372;28;20460;-86
2022/06/20 00:18:26;;;;;;;11.20;6.30;;;28.60;86.00;;;;;;5046502;28;20675;-85
2022/06/20 00:20:54;;;;;;;8.93;6.23;;;28.60;89.90;;;;;;5049162;28;20443;-85
2022/06/20 00:23:22;;;;;;;6.77;5.47;;;28.50;88.00;;;;;;5043538;28;20452;-85
2022/06/20 00:25:51;;;;;;;7.37;6.50;;;28.40;87.60;;;;;;5039160;28;20475;-84
2022/06/20 00:28:19;;;;;;;6.60;6.00;;;28.40;90.10;;;;;;5045951;28;20443;-84
2022/06/20 00:30:48;;;;;;;6.73;5.87;;;28.40;88.80;;;;;;5047895;28;20455;-84
2022/06/20 00:33:16;;;;;;;14.43;6.00;;;28.40;87.80;;;;;;5046754;28;20465;-84
2022/06/20 00:35:45;;;;;;;7.47;5.67;;;28.40;90.00;;;;;;5044968;28;20476;-84
2022/06/20 00:38:18;;;;;;;8.60;6.30;;;28.40;90.10;;;;;;5049560;28;20475;-84
2022/06/20 00:40:49;;;;;;;9.57;6.27;;;28.40;88.50;;;;;;5048640;28;20444;-85
2022/06/20 00:43:22;;;;;;;7.20;6.50;;;28.40;90.30;;;;;;5047395;28;20455;-84
2022/06/20 00:45:54;;;;;;;7.93;6.00;;;28.30;90.00;;;;;;5050762;28;20526;-85
2022/06/20 00:48:27;;;;;;;7.47;5.87;;;28.30;89.40;;;;;;5048052;28;20459;-85
2022/06/20 00:51:02;;;;;;;9.53;8.00;;;28.30;90.00;;;;;;5062203;28;20460;-85
2022/06/20 00:53:35;;;;;;;11.17;7.83;;;28.30;89.70;;;;;;5048610;28;20458;-84
2022/06/20 00:56:10;;;;;;;9.10;7.47;;;28.30;93.80;;;;;;5049870;28;20556;-84
2022/06/20 00:58:43;;;;;;;13.50;7.53;;;28.20;98.30;;;;;;5047245;28;20632;-84
2022/06/20 01:01:13;;;;;;;8.07;6.40;;;28.10;99.40;;;;;;5049380;28;20435;-84
2022/06/20 01:03:48;;;;;;;11.70;7.57;;;28.00;99.90;;;;;;5051131;28;20463;-84
2022/06/20 01:06:24;;;;;;;12.63;7.43;;;27.90;99.90;;;;;;5061130;28;20509;-84
2022/06/20 01:08:58;;;;;;;10.73;7.53;;;27.80;99.90;;;;;;5047303;28;20444;-84
2022/06/20 01:11:32;;;;;;;12.00;7.27;;;27.80;99.90;;;;;;5056054;28;20486;-84
2022/06/20 01:14:00;;;;;;;9.50;7.30;;;27.80;99.90;;;;;;5044912;28;20456;-84
2022/06/20 01:16:31;;;;;;;10.43;7.00;;;27.80;99.90;;;;;;5042857;28;20464;-83
2022/06/20 01:19:02;;;;;;;9.83;6.40;;;27.80;99.90;;;;;;5043778;28;20476;-83
2022/06/20 01:21:34;;;;;;;10.70;7.10;;;27.70;99.90;;;;;;5050563;28;20456;-83
2022/06/20 01:24:21;;;;;;;11.20;7.40;;;27.60;99.90;;;;;;5049409;28;20447;-83
2022/06/20 01:26:55;;;;;;;10.40;6.40;;;27.60;99.90;;;;;;5045656;28;20605;-83
2022/06/20 01:29:25;;;;;;;10.90;7.40;;;27.90;99.90;;;;;;5043660;28;21107;-84
2022/06/20 01:31:57;;;;;;;10.83;6.23;;;27.50;99.90;;;;;;5046697;28;20470;-84
2022/06/20 01:34:25;;;;;;;9.60;6.60;;;27.40;99.90;;;;;;5044374;28;20456;-84
2022/06/20 01:39:44;;;;;;;8.27;6.70;;;27.30;99.90;;;;;;5051169;28;20495;-84
2022/06/20 01:42:19;;;;;;;13.87;7.17;;;27.20;99.90;;;;;;5047431;28;20474;-82
2022/06/20 01:44:51;;;;;;;9.63;6.80;;;27.20;99.90;;;;;;5041856;28;20459;-83
2022/06/20 01:47:19;;;;;;;7.73;6.33;;;27.20;99.90;;;;;;5045991;28;21323;-83
2022/06/20 01:49:51;;;;;;;9.60;6.10;;;27.10;99.90;;;;;;5047519;28;20501;-83
2022/06/20 01:52:25;;;;;;;9.27;6.57;;;27.10;99.90;;;;;;5047578;28;20454;-82
2022/06/20 01:54:57;;;;;;;9.87;6.10;;;27.10;99.90;;;;;;5046639;28;20463;-84
2022/06/20 01:57:27;;;;;;;8.83;6.97;;;27.00;99.90;;;;;;5041633;28;20739;-83
2022/06/20 02:00:09;;;;;;;8.00;6.37;;;27.00;99.90;;;;;;5043576;28;20704;-83
2022/06/20 02:02:41;;;;;;;7.83;6.47;;;27.00;99.90;;;;;;5046421;28;20447;-83
2022/06/20 02:05:14;;;;;;;7.47;5.03;;;27.00;99.90;;;;;;5042040;28;20538;-83
2022/06/20 02:07:43;;;;;;;9.67;6.50;;;27.00;99.90;;;;;;5043595;28;20479;-83
2022/06/20 02:10:16;;;;;;;6.70;5.83;;;26.90;99.90;;;;;;5044256;28;20885;-83
2022/06/20 02:12:47;;;;;;;9.47;6.57;;;26.90;99.90;;;;;;5044135;28;21115;-82
2022/06/20 02:15:18;;;;;;;7.40;5.70;;;27.00;99.90;;;;;;5040682;28;20456;-82
2022/06/20 02:17:48;;;;;;;6.23;5.63;;;26.90;99.90;;;;;;5041093;28;20471;-83
2022/06/20 02:20:21;;;;;;;6.87;6.27;;;27.00;99.90;;;;;;5042992;28;20503;-83
2022/06/20 02:22:50;;;;;;;9.23;6.63;;;27.00;99.90;;;;;;5039808;28;20452;-84
2022/06/20 02:25:24;;;;;;;9.10;6.60;;;27.00;99.90;;;;;;5046014;28;20443;-84
2022/06/20 02:27:55;;;;;;;8.80;6.50;;;27.00;99.90;;;;;;5044547;28;20472;-84
2022/06/20 02:30:25;;;;;;;9.27;6.30;;;27.00;99.90;;;;;;5044768;28;20462;-83
2022/06/20 02:33:03;;;;;;;12.37;6.50;;;26.90;99.90;;;;;;5045865;28;21084;-84
2022/06/20 02:35:32;;;;;;;7.80;6.23;;;27.00;99.90;;;;;;5038684;28;21028;-84
2022/06/20 02:38:00;;;;;;;8.90;5.30;;;26.90;99.90;;;;;;5043314;28;20521;-84
2022/06/20 02:40:30;;;;;;;11.43;6.00;;;26.80;99.90;;;;;;5039392;28;20484;-83
2022/06/20 02:43:04;;;;;;;10.80;6.37;;;26.90;99.90;;;;;;5046133;28;20658;-84
2022/06/20 02:45:35;;;;;;;8.70;4.67;;;26.90;99.90;;;;;;5044040;28;20456;-84
2022/06/20 02:48:05;;;;;;;9.17;5.60;;;27.00;99.90;;;;;;5044718;28;20475;-84
2022/06/20 02:50:37;;;;;;;9.23;5.43;;;27.00;99.90;;;;;;5041168;28;20480;-84
2022/06/20 02:53:07;;;;;;;8.00;5.57;;;26.90;99.90;;;;;;5046115;28;20469;-84
2022/06/20 02:55:38;;;;;;;8.67;4.30;;;26.90;99.90;;;;;;5043701;28;20454;-83
2022/06/20 02:58:12;;;;;;;8.17;4.50;;;26.90;99.90;;;;;;5042526;28;20508;-82
2022/06/20 03:00:48;;;;;;;9.30;4.30;;;26.90;99.90;;;;;;5042379;28;21230;-83
2022/06/20 03:03:31;;;;;;;7.40;4.53;;;26.90;99.90;;;;;;5047775;28;20451;-83
2022/06/20 03:06:00;;;;;;;11.27;4.40;;;26.90;99.90;;;;;;5043187;28;20558;-84
2022/06/20 03:08:29;;;;;;;6.10;4.50;;;27.00;99.90;;;;;;5041063;28;20480;-84
2022/06/20 03:11:02;;;;;;;12.60;5.80;;;26.90;99.90;;;;;;5049518;28;20444;-84
2022/06/20 03:13:31;;;;;;;6.83;4.30;;;26.90;99.90;;;;;;5044193;28;20465;-83
2022/06/20 03:16:03;;;;;;;12.53;4.77;;;26.90;99.90;;;;;;5044135;28;20475;-84
2022/06/20 03:18:36;;;;;;;7.07;4.90;;;27.00;99.90;;;;;;5044637;28;20451;-83
2022/06/20 03:21:04;;;;;;;7.50;4.77;;;27.00;99.90;;;;;;5039465;28;20501;-83
2022/06/20 03:23:34;;;;;;;11.60;5.50;;;27.00;99.90;;;;;;5043017;28;20455;-83
2022/06/20 03:26:06;;;;;;;7.87;4.73;;;27.10;99.90;;;;;;5039640;28;21349;-82
2022/06/20 03:28:35;;;;;;;7.23;5.13;;;27.10;99.90;;;;;;5044339;28;20455;-82
2022/06/20 03:31:06;;;;;;;5.07;4.13;;;27.10;99.90;;;;;;5044967;28;20908;-81
2022/06/20 03:33:35;;;;;;;7.90;5.80;;;27.10;99.90;;;;;;5047096;28;20462;-81
2022/06/20 03:36:08;;;;;;;6.07;4.20;;;26.90;99.90;;;;;;5043246;28;20484;-81
2022/06/20 03:38:38;;;;;;;8.93;4.73;;;26.90;99.90;;;;;;5045209;28;20459;-81
2022/06/20 03:41:08;;;;;;;7.20;4.43;;;26.80;99.90;;;;;;5045813;28;20545;-81
2022/06/20 03:43:37;;;;;;;9.43;5.00;;;26.90;99.90;;;;;;5044846;28;20459;-82
2022/06/20 03:46:15;;;;;;;6.80;5.00;;;26.90;99.90;;;;;;5042774;28;20479;-81
2022/06/20 03:48:50;;;;;;;8.03;4.80;;;27.00;99.90;;;;;;5046565;28;20455;-81
2022/06/20 03:51:23;;;;;;;10.77;5.23;;;27.00;99.90;;;;;;5045301;28;20963;-82
2022/06/20 03:53:59;;;;;;;7.93;5.43;;;27.00;99.90;;;;;;5043212;28;20525;-81
2022/06/20 03:56:31;;;;;;;7.93;5.10;;;27.00;99.90;;;;;;5038461;28;20482;-82
2022/06/20 03:59:04;;;;;;;7.67;5.73;;;27.00;99.90;;;;;;5043957;28;20456;-82
2022/06/20 04:01:39;;;;;;;6.70;5.73;;;27.00;99.90;;;;;;5044452;28;20510;-81
2022/06/20 04:04:12;;;;;;;9.57;6.73;;;26.90;99.90;;;;;;5041041;28;20447;-82
2022/06/20 04:06:46;;;;;;;11.13;7.87;;;26.90;99.90;;;;;;5041788;28;20554;-82
2022/06/20 04:12:10;;;;;;;11.27;6.63;;;26.70;99.90;;;;;;5042618;28;20462;-82
2022/06/20 04:14:46;;;;;;;9.30;6.87;;;26.70;99.90;;;;;;5045355;28;20463;-81
2022/06/20 04:20:13;;;;;;;9.00;6.03;;;26.60;99.90;;;;;;5042791;28;20464;-82
2022/06/20 04:22:44;;;;;;;7.60;6.10;;;26.50;99.90;;;;;;5037879;28;20995;-81
2022/06/20 04:25:24;;;;;;;9.57;5.73;;;26.50;99.90;;;;;;5041842;28;20456;-81
2022/06/20 04:27:58;;;;;;;8.50;5.90;;;26.40;99.90;;;;;;5042357;28;20871;-82
2022/06/20 04:30:33;;;;;;;12.03;5.73;;;26.30;99.90;;;;;;5036877;28;20444;-82
2022/06/20 04:33:08;;;;;;;12.93;5.67;;;26.30;99.90;;;;;;5041012;28;20491;-83
2022/06/20 04:35:40;;;;;;;9.13;6.03;;;26.40;99.90;;;;;;5040700;28;20455;-83
2022/06/20 04:38:15;;;;;;;7.83;5.37;;;26.30;99.90;;;;;;5038672;28;20459;-83
2022/06/20 04:40:52;;;;;;;7.90;5.70;;;26.30;99.90;;;;;;5040439;28;20548;-82
2022/06/20 04:43:24;;;;;;;6.20;5.27;;;26.30;99.90;;;;;;5035038;28;20477;-83
2022/06/20 04:46:00;;;;;;;9.70;6.57;;;26.20;99.90;;;;;;5039015;28;20484;-81
2022/06/20 04:48:29;;;;;;;11.77;6.00;;;26.20;99.90;;;;;;5037677;28;20447;-82
2022/06/20 04:51:01;;;;;;;12.67;6.73;;;26.20;99.90;;;;;;5037043;28;20440;-82
2022/06/20 04:53:33;;;;;;;11.70;6.30;;;26.20;99.90;;;;;;5054015;28;20850;-82
2022/06/20 04:56:05;;;;;;;8.57;5.97;;;26.10;99.90;;;;;;5040318;28;20475;-81
2022/06/20 04:58:38;;;;;;;12.20;7.20;;;26.10;99.90;;;;;;5039245;28;20522;-82
2022/06/20 05:01:09;;;;;;;8.60;6.43;;;26.00;99.90;;;;;;5044017;28;20483;-83
2022/06/20 05:03:43;;;;;;;9.17;6.83;;;26.00;99.90;;;;;;5044223;28;20455;-81
2022/06/20 05:06:18;;;;;;;9.57;6.33;;;26.00;99.90;;;;;;5044368;28;20536;-81
2022/06/20 05:08:49;;;;;;;7.37;6.50;;;26.00;99.90;;;;;;5039822;28;20462;-81
2022/06/20 05:11:22;;;;;;;6.03;5.53;;;26.00;99.90;;;;;;5044882;28;20444;-81
2022/06/20 05:13:55;;;;;;;8.40;5.77;;;26.00;99.90;;;;;;5043131;28;20506;-83
2022/06/20 05:16:27;;;;;;;8.30;5.00;;;26.00;99.90;;;;;;5042724;28;20479;-80
2022/06/20 05:18:59;;;;;;;11.10;6.67;;;25.90;99.90;;;;;;5044151;28;20820;-81
2022/06/20 05:21:31;;;;;;;7.53;5.30;;;26.00;99.90;;;;;;5053118;28;20467;-82
2022/06/20 05:24:03;;;;;;;8.47;7.57;;;26.00;99.90;;;;;;5056277;28;20529;-81
2022/06/20 05:26:35;;;;;;;7.53;5.17;;;26.10;99.90;;;;;;5049477;28;20479;-82
2022/06/20 05:29:07;;;;;;;8.57;6.33;;;26.10;99.90;;;;;;5059499;28;20466;-83
2022/06/20 05:31:38;;;;;;;13.83;6.30;;;26.00;99.90;;;;;;5043956;28;20469;-82
2022/06/20 05:34:16;;;;;;;9.70;5.67;;;26.00;99.90;;;;;;5047654;28;20462;-82
2022/06/20 05:36:51;;;;;;;8.50;4.37;;;26.00;99.90;;;;;;5045323;28;20474;-81
2022/06/20 05:39:24;;;;;;;5.90;5.30;;;25.90;99.90;;;;;;5046498;28;21248;-79
2022/06/20 05:41:53;;;;;;;6.90;6.13;;;25.80;99.90;;;;;;5051116;28;20483;-79
2022/06/20 05:44:21;;;;;;;11.13;5.90;;;25.80;99.90;;;;;;5049569;28;20451;-79
2022/06/20 05:46:55;;;;;;;8.10;6.83;;;25.80;99.90;;;;;;5046666;28;20467;-79
2022/06/20 05:49:30;;;;;;;9.73;6.00;;;25.90;99.90;;;;;;5050672;28;20496;-78
2022/06/20 05:52:00;;;;;;;14.60;6.10;;;25.90;99.90;;;;;;5042091;28;20517;-78
2022/06/20 05:54:33;;;;;;;10.57;6.23;;;25.90;99.90;;;;;;5049972;28;20456;-79
2022/06/20 05:57:07;;;;;;;6.70;6.03;;;25.90;99.90;;;;;;5050130;28;20502;-80
2022/06/20 05:59:43;;;;;;;12.73;6.60;;;25.80;99.90;;;;;;5052586;28;20858;-79
2022/06/20 06:02:27;;;;;;;10.03;6.70;;;25.90;99.90;;;;;;5049958;28;20549;-80
2022/06/20 06:05:07;;;;;;;10.37;6.60;;;25.90;99.90;;;;;;5050388;28;20447;-80
2022/06/20 06:07:42;;;;;;;12.77;7.73;;;25.90;99.90;;;;;;5041896;28;20475;-80
2022/06/20 06:10:27;;;;;;;9.33;6.50;;;25.90;99.90;;;;;;5051081;28;20500;-81
2022/06/20 06:13:04;;;;;;;8.13;6.80;;;25.90;99.90;;;;;;5050345;28;20490;-81
2022/06/20 06:15:39;;;;;;;7.60;5.87;;;25.90;99.90;;;;;;5048840;28;20443;-78
2022/06/20 06:18:13;;;;;;;10.53;6.87;;;26.00;99.90;;;;;;5050713;28;20446;-80
2022/06/20 06:20:48;;;;;;;9.50;6.93;;;25.90;99.90;;;;;;5051308;28;20476;-81
2022/06/20 06:23:16;;;;;;;8.10;6.50;;;25.90;99.90;;;;;;5045921;28;20462;-80
2022/06/20 06:25:45;;;;;;;8.93;6.83;;;25.90;99.90;;;;;;5048023;28;20511;-81
2022/06/20 06:28:17;;;;;;;8.80;6.40;;;26.00;99.90;;;;;;5044373;28;20456;-81
2022/06/20 06:30:52;;;;;;;8.27;7.20;;;26.10;99.90;;;;;;5049338;28;20514;-81
2022/06/20 06:33:26;;;;;;;9.70;6.10;;;26.10;99.90;;;;;;5042607;28;20455;-81
2022/06/20 06:36:01;;;;;;;7.07;6.20;;;26.10;99.90;;;;;;5046655;28;20472;-80
2022/06/20 06:38:35;;;;;;;7.93;6.07;;;26.10;99.90;;;;;;5049898;28;20447;-79
2022/06/20 06:41:07;;;;;;;6.73;6.00;;;26.20;99.90;;;;;;5043276;28;20471;-81
2022/06/20 06:43:38;;;;;;;8.03;6.43;;;26.20;99.90;;;;;;5043383;28;20444;-80
2022/06/20 06:46:14;;;;;;;6.80;6.10;;;26.20;99.90;;;;;;5041013;28;20468;-80
2022/06/20 06:48:47;;;;;;;8.07;6.00;;;26.10;99.90;;;;;;5037698;28;20447;-80
2022/06/20 06:51:23;;;;;;;7.80;5.73;;;26.20;99.90;;;;;;5041970;28;21233;-80
2022/06/20 06:53:56;;;;;;;9.10;6.70;;;26.20;99.90;;;;;;5037437;28;20455;-81
2022/06/20 06:56:31;;;;;;;7.63;6.27;;;26.20;99.90;;;;;;5041238;28;20909;-80
2022/06/20 06:59:05;;;;;;;7.60;6.00;;;26.30;99.90;;;;;;5045928;28;20452;-80
2022/06/20 07:01:37;;;;;;;8.47;6.23;;;26.40;99.90;;;;;;5043356;28;20483;-80
2022/06/20 07:04:16;;;;;;;9.30;6.03;;;26.50;99.90;;;;;;5040386;28;21185;-80
2022/06/20 07:06:50;;;;;;;6.57;5.07;;;26.60;99.90;;;;;;5042438;28;20477;-79
2022/06/20 07:09:23;;;;;;;6.03;5.43;;;26.60;99.90;;;;;;5045052;28;20459;-79
2022/06/20 07:12:03;;;;;;;8.57;5.90;;;26.70;99.90;;;;;;5039498;28;20454;-80
2022/06/20 07:14:34;;;;;;;5.10;4.30;;;26.80;99.90;;;;;;5042986;28;20514;-80
2022/06/20 07:17:08;;;;;;;6.83;5.50;;;26.80;99.90;;;;;;5042031;28;20475;-81
2022/06/20 07:19:43;;;;;;;7.00;4.80;;;26.90;99.90;;;;;;5039924;28;20973;-80
2022/06/20 07:22:15;;;;;;;8.73;6.03;;;26.90;99.90;;;;;;5043370;28;20479;-80
2022/06/20 07:24:46;;;;;;;11.10;6.17;;;27.00;99.90;;;;;;5040430;28;20455;-80
2022/06/20 07:27:20;;;;;;;5.03;4.50;;;27.00;99.90;;;;;;5038936;28;20480;-80
2022/06/20 07:29:53;;;;;;;5.40;4.90;;;27.00;99.90;;;;;;5034805;28;21037;-80
2022/06/20 07:32:38;;;;;;;9.13;6.10;;;27.10;99.90;;;;;;5042275;28;20546;-80
2022/06/20 07:35:10;;;;;;;6.13;4.87;;;27.10;99.90;;;;;;5039867;28;20525;-80
2022/06/20 07:37:44;;;;;;;9.90;6.10;;;27.10;99.90;;;;;;5038807;28;20479;-80
2022/06/20 07:40:19;;;;;;;7.80;5.50;;;27.20;99.90;;;;;;5044829;28;20475;-80
2022/06/20 07:42:54;;;;;;;6.67;5.20;;;27.20;99.90;;;;;;5048542;28;20562;-80
2022/06/20 07:45:28;;;;;;;10.53;6.73;;;27.20;99.90;;;;;;5040335;28;21086;-80
2022/06/20 07:48:00;;;;;;;6.00;5.40;;;27.30;99.90;;;;;;5039698;28;20472;-79
2022/06/20 07:50:35;;;;;;;8.15;5.88;;;27.30;99.90;;;;;;5040421;28;20501;-81
2022/06/20 07:53:12;;;;;;;5.97;5.37;;;27.30;99.90;;;;;;5039476;28;20205;-79
2022/06/20 07:55:46;;;;;;;5.73;5.13;;;27.40;99.90;;;;;;5033956;28;20459;-80
2022/06/20 07:58:22;;;;;;;7.07;5.07;;;27.40;99.90;;;;;;5036952;28;20791;-80
2022/06/20 08:00:52;;;;;;;5.23;4.70;;;27.50;99.90;;;;;;5040297;28;21050;-79
2022/06/20 08:03:26;;;;;;;6.27;4.80;;;27.50;99.90;;;;;;5033972;28;20479;-80
2022/06/20 08:05:58;;;;;;;5.90;5.00;;;27.50;99.90;;;;;;5041165;28;20546;-77
2022/06/20 08:08:35;;;;;;;6.37;4.80;;;27.50;99.90;;;;;;5037863;28;20447;-79
2022/06/20 08:11:06;;;;;;;4.77;4.33;;;27.60;99.90;;;;;;5038740;28;20548;-80
2022/06/20 08:13:42;;;;;;;5.40;5.00;;;27.60;99.90;;;;;;5037146;28;20566;-81
2022/06/20 08:16:17;;;;;;;8.20;5.10;;;27.60;99.90;;;;;;5036357;28;20474;-80
2022/06/20 08:18:46;;;;;;;6.23;5.43;;;27.60;99.90;;;;;;5035347;28;20459;-81
2022/06/20 08:21:22;;;;;;;5.13;4.63;;;27.60;99.90;;;;;;5035429;28;20449;-79
2022/06/20 08:23:56;;;;;;;5.60;5.20;;;27.70;99.90;;;;;;5035656;28;20525;-80
2022/06/20 08:26:32;;;;;;;4.40;4.00;;;27.70;99.90;;;;;;5037714;28;20600;-80
2022/06/20 08:29:05;;;;;;;5.37;4.77;;;27.70;99.90;;;;;;5033775;28;21814;-80
2022/06/20 08:31:36;;;;;;;8.57;4.30;;;27.80;99.90;;;;;;5040864;28;20470;-80
2022/06/20 08:34:11;;;;;;;5.57;4.30;;;27.90;99.90;;;;;;5044357;28;20455;-77
2022/06/20 08:36:46;;;;;;;6.17;5.20;;;27.90;99.90;;;;;;5042938;28;20473;-79
2022/06/20 08:39:19;;;;;;;4.40;4.00;;;27.90;99.90;;;;;;5043587;28;20461;-79
2022/06/20 08:42:35;;;;;;;4.90;4.43;;;27.90;99.90;;;;;;5055199;28;20861;-79
2022/06/20 08:45:30;;;;;;;4.40;4.00;;;27.90;99.90;;;;;;5004111;28;20885;-81
2022/06/20 08:48:32;;;;;;;6.33;5.23;;;27.90;99.90;;;;;;5039647;28;20975;-80
2022/06/20 08:51:28;;;;;;;5.13;3.80;;;27.90;99.90;;;;;;5040132;28;20446;-79
2022/06/20 08:54:36;;;;;;;5.20;4.03;;;27.90;99.90;;;;;;5044032;28;20510;-79
2022/06/20 08:57:11;;;;;;;4.30;3.90;;;28.00;99.90;;;;;;5040772;28;20471;-79
2022/06/20 08:59:54;;;;;;;4.80;4.37;;;28.00;99.90;;;;;;5041234;28;21028;-79
2022/06/20 09:02:43;;;;;;;8.43;6.07;;;28.00;99.90;;;;;;5040252;28;21021;-79
2022/06/20 09:05:29;;;;;;;5.57;5.00;;;28.10;99.90;;;;;;5042168;28;20465;-79
2022/06/20 09:08:26;;;;;;;5.63;4.87;;;28.20;99.90;;;;;;5043252;28;20474;-79
2022/06/20 09:11:08;;;;;;;6.30;5.67;;;28.20;99.90;;;;;;5038586;28;21320;-79
2022/06/20 09:13:56;;;;;;;6.93;3.70;;;28.20;99.90;;;;;;5039978;28;20455;-79
2022/06/20 09:16:37;;;;;;;4.87;4.47;;;28.20;99.90;;;;;;5040526;28;20478;-78
2022/06/20 09:19:37;;;;;;;6.07;4.83;;;28.30;99.90;;;;;;5043150;28;20478;-79
2022/06/20 09:22:12;;;;;;;4.90;4.40;;;28.30;99.90;;;;;;5030413;28;20978;-79
2022/06/20 09:25:03;;;;;;;6.00;4.33;;;28.30;99.90;;;;;;5040646;28;20532;-79
2022/06/20 09:27:44;;;;;;;5.07;4.60;;;28.40;99.90;;;;;;5041366;28;20475;-79
2022/06/20 09:30:18;;;;;;;4.30;4.00;;;28.40;99.90;;;;;;5039572;28;20466;-80
2022/06/20 09:33:30;;;;;;;5.20;4.80;;;28.30;99.90;;;;;;5041553;28;20546;-80
2022/06/20 09:36:19;;;;;;;6.30;4.70;;;28.30;99.90;;;;;;5040118;28;20486;-81
2022/06/20 09:39:07;;;;;;;5.33;4.70;;;28.40;99.90;;;;;;5047306;28;20458;-80
2022/06/20 09:41:42;;;;;;;5.60;4.90;;;28.30;99.90;;;;;;5038276;28;20452;-80
2022/06/20 09:44:21;;;;;;;4.93;4.00;;;28.40;99.90;;;;;;5040712;28;20478;-77
2022/06/20 09:46:59;;;;;;;4.53;4.10;;;28.40;99.90;;;;;;5040419;28;20874;-81
2022/06/20 09:49:35;;;;;;;8.67;4.73;;;28.40;99.90;;;;;;5059979;28;20474;-81
2022/06/20 09:52:12;;;;;;;4.60;4.33;;;28.40;99.90;;;;;;5041628;28;20517;-81
2022/06/20 09:54:50;;;;;;;4.97;4.43;;;28.40;99.90;;;;;;5042448;28;21010;-80
2022/06/20 09:57:28;;;;;;;5.33;4.83;;;28.40;99.90;;;;;;5042310;28;20577;-81
2022/06/20 10:00:05;;;;;;;4.93;4.23;;;28.50;99.90;;;;;;5038086;28;20467;-81
2022/06/20 10:02:44;;;;;;;4.70;3.97;;;28.50;99.90;;;;;;5044614;28;20448;-81
2022/06/20 10:05:20;;;;;;;4.60;3.90;;;28.50;99.90;;;;;;5045849;28;20555;-82
2022/06/20 10:07:53;;;;;;;4.30;3.90;;;28.50;99.90;;;;;;5041383;28;20490;-81
2022/06/20 10:10:28;;;;;;;5.23;4.77;;;28.60;99.90;;;;;;5040483;28;20542;-81
2022/06/20 10:13:03;;;;;;;7.87;3.60;;;28.50;99.90;;;;;;5037549;28;21186;-79
2022/06/20 10:15:40;;;;;;;3.27;2.97;;;28.50;99.90;;;;;;5040569;28;20452;-80
2022/06/20 10:18:21;;;;;;;4.10;3.70;;;28.60;99.90;;;;;;5042112;28;20463;-81
2022/06/20 10:20:55;;;;;;;5.90;3.90;;;28.60;99.90;;;;;;5039765;28;20455;-80
2022/06/20 10:23:45;;;;;;;3.80;3.50;;;28.60;99.90;;;;;;5045173;28;20520;-80
2022/06/20 10:26:52;;;;;;;4.60;3.63;;;28.60;99.90;;;;;;5045054;28;20502;-80
2022/06/20 10:29:24;;;;;;;4.20;3.90;;;28.70;99.90;;;;;;5023765;28;20455;-81
2022/06/20 10:32:08;;;;;;;3.93;3.50;;;28.60;99.90;;;;;;5041419;28;20463;-81
2022/06/20 10:34:42;;;;;;;4.10;3.70;;;28.60;99.90;;;;;;5024049;28;20488;-82
2022/06/20 10:37:24;;;;;;;8.37;3.83;;;28.60;99.90;;;;;;5023705;28;20512;-80
2022/06/20 10:39:58;;;;;;;4.30;3.90;;;28.60;99.90;;;;;;5020203;28;20460;-81
2022/06/20 10:42:33;;;;;;;6.30;4.17;;;28.70;99.90;;;;;;5024893;28;20533;-80
2022/06/20 10:45:33;;;;;;;5.17;3.93;;;28.60;99.90;;;;;;5036041;28;20487;-81
2022/06/20 10:48:39;;;;;;;3.60;2.70;;;28.70;99.90;;;;;;5032711;28;20475;-79
2022/06/20 10:51:16;;;;;;;5.60;3.73;;;28.60;99.90;;;;;;5039058;28;20541;-79
2022/06/20 10:53:55;;;;;;;4.70;3.07;;;28.60;99.90;;;;;;5041273;28;20451;-80
2022/06/20 10:56:31;;;;;;;6.03;3.90;;;28.60;99.90;;;;;;5037130;28;21299;-80
2022/06/20 10:59:15;;;;;;;4.87;4.10;;;28.70;99.90;;;;;;5035329;28;20459;-80
2022/06/20 11:01:50;;;;;;;11.87;6.50;;;28.70;99.90;;;;;;5031834;28;20456;-81
2022/06/20 11:04:41;;;;;;;5.60;5.10;;;28.80;99.90;;;;;;5037696;28;20574;-80
2022/06/20 11:07:20;;;;;;;7.27;4.20;;;28.80;99.90;;;;;;5038650;28;20484;-81
2022/06/20 11:10:02;;;;;;;6.23;4.60;;;28.90;99.90;;;;;;5039239;28;20525;-80
2022/06/20 11:12:41;;;;;;;5.03;4.27;;;29.00;99.90;;;;;;5021633;28;21084;-81
2022/06/20 11:15:19;;;;;;;5.23;3.57;;;29.00;99.90;;;;;;5015775;28;20456;-80
2022/06/20 11:17:53;;;;;;;3.10;2.90;;;29.00;99.90;;;;;;5014493;28;20472;-79
2022/06/20 11:20:28;;;;;;;3.30;3.07;;;28.90;99.90;;;;;;5035703;28;20471;-80
2022/06/20 11:23:03;;;;;;;4.57;3.13;;;28.90;99.90;;;;;;5054756;28;20459;-78
2022/06/20 11:25:42;;;;;;;6.30;4.47;;;28.90;99.90;;;;;;5037731;28;21111;-79
2022/06/20 11:28:23;;;;;;;5.20;4.37;;;29.00;99.90;;;;;;5037667;28;20448;-80
2022/06/20 11:31:05;;;;;;;3.90;3.37;;;28.90;99.90;;;;;;5040781;28;20452;-80
2022/06/20 11:34:03;;;;;;;4.60;3.60;;;28.80;99.90;;;;;;5035302;28;20459;-81
2022/06/20 11:36:53;;;;;;;9.53;3.40;;;28.80;99.90;;;;;;5034560;28;20475;-79
2022/06/20 11:39:33;;;;;;;4.80;2.30;;;28.70;99.90;;;;;;5036801;28;20460;-80
2022/06/20 11:42:18;;;;;;;4.70;2.43;;;28.80;99.90;;;;;;5034166;28;20487;-81
2022/06/20 11:44:59;;;;;;;2.80;2.40;;;28.80;99.90;;;;;;5032583;28;20525;-79
2022/06/20 11:47:49;;;;;;;3.30;2.20;;;28.80;99.90;;;;;;5039885;28;21077;-79
2022/06/20 11:50:35;;;;;;;4.30;2.50;;;28.70;99.90;;;;;;5038445;28;20974;-80
2022/06/20 11:53:25;;;;;;;3.70;3.40;;;28.70;99.90;;;;;;5041234;28;20923;-80
2022/06/20 11:56:09;;;;;;;3.20;3.00;;;28.70;99.90;;;;;;5037561;28;20472;-79
2022/06/20 11:59:25;;;;;;;3.97;3.47;;;28.70;99.90;;;;;;5038047;28;20624;-79
2022/06/20 12:02:24;;;;;;;3.90;3.60;;;28.70;99.90;;;;;;5037861;28;21026;-81
2022/06/20 12:04:59;;;;;;;3.80;3.50;;;28.70;99.90;;;;;;5035635;28;20510;-79
2022/06/20 12:07:50;;;;;;;4.00;2.50;;;28.70;99.90;;;;;;5036252;28;20507;-78
2022/06/20 12:10:27;;;;;;;6.43;2.53;;;28.70;99.90;;;;;;5040876;28;20466;-79
2022/06/20 12:13:04;;;;;;;4.20;2.70;;;28.80;99.90;;;;;;5041985;28;20454;-79
2022/06/20 12:15:46;;;;;;;2.30;2.10;;;28.80;99.90;;;;;;5037822;28;20459;-79
2022/06/20 12:18:31;;;;;;;2.90;2.70;;;28.80;99.90;;;;;;5040923;28;20479;-81
2022/06/20 12:23:53;;;;;;;2.43;2.27;;;28.70;99.90;;;;;;5039178;28;20572;-80
2022/06/20 12:26:29;;;;;;;3.23;2.07;;;28.70;99.90;;;;;;5039504;28;21111;-80
2022/06/20 12:28:59;;;;;;;6.10;2.40;;;28.50;99.90;;;;;;5034305;28;21068;-79
2022/06/20 12:31:31;;;;;;;3.67;2.30;;;28.60;99.90;;;;;;5037557;28;21068;-78
2022/06/20 12:34:08;;;;;;;6.07;2.70;;;28.60;99.90;;;;;;5038963;28;20538;-79
2022/06/20 12:36:45;;;;;;;7.03;2.70;;;28.60;99.90;;;;;;5040463;28;20478;-80
2022/06/20 12:39:20;;;;;;;5.57;2.40;;;28.60;99.90;;;;;;5040873;28;20883;-79
2022/06/20 12:41:58;;;;;;;2.23;2.03;;;28.70;99.90;;;;;;5037022;28;20450;-78
2022/06/20 12:44:38;;;;;;;3.30;1.87;;;28.70;99.90;;;;;;5037846;28;20489;-79
2022/06/20 12:47:27;;;;;;;2.60;1.80;;;28.70;99.90;;;;;;5039190;28;20471;-79
2022/06/20 12:50:15;;;;;;;3.43;2.40;;;28.80;99.90;;;;;;5035954;28;20505;-79
2022/06/20 12:52:56;;;;;;;3.27;2.07;;;28.80;99.90;;;;;;5040449;28;20459;-81
2022/06/20 12:55:39;;;;;;;2.70;2.50;;;28.80;99.90;;;;;;5041102;28;20509;-79
2022/06/20 12:58:34;;;;;;;3.50;1.93;;;28.80;99.90;;;;;;5054404;28;20455;-80
2022/06/20 13:01:09;;;;;;;2.53;2.33;;;28.80;99.90;;;;;;5041497;28;20983;-80
2022/06/20 13:04:14;;;;;;;4.53;2.30;;;28.80;99.90;;;;;;5039098;28;20451;-80
2022/06/20 13:07:15;;;;;;;4.37;1.80;;;28.90;99.90;;;;;;5031818;28;20486;-80
2022/06/20 13:10:08;;;;;;;3.60;2.23;;;28.90;99.90;;;;;;5006130;28;20475;-80
2022/06/20 13:12:54;;;;;;;2.50;1.63;;;29.00;99.90;;;;;;5038302;28;20467;-79
2022/06/20 13:15:37;;;;;;;4.57;3.47;;;29.10;99.90;;;;;;5034364;28;20443;-80
2022/06/20 13:18:41;;;;;;;3.90;1.90;;;29.00;99.90;;;;;;5042948;28;20574;-79
2022/06/20 13:21:16;;;;;;;4.33;1.90;;;29.00;99.90;;;;;;5020185;28;20455;-80
2022/06/20 13:24:16;;;;;;;3.47;2.10;;;29.00;99.90;;;;;;5044979;28;20454;-81
2022/06/20 13:26:53;;;;;;;4.07;1.93;;;29.10;99.90;;;;;;5036031;28;21055;-79
2022/06/20 13:29:35;;;;;;;2.60;2.40;;;29.10;99.90;;;;;;5045815;28;20862;-79
2022/06/20 13:32:22;;;;;;;5.40;2.37;;;29.10;99.90;;;;;;5042091;28;20516;-80
2022/06/20 13:34:58;;;;;;;3.67;2.77;;;29.10;99.90;;;;;;5039972;28;20876;-80
2022/06/20 13:37:43;;;;;;;4.10;2.40;;;29.10;99.90;;;;;;5058189;28;20479;-79
2022/06/20 13:40:26;;;;;;;6.20;2.60;;;29.00;99.90;;;;;;5042857;28;22518;-80
2022/06/20 13:43:20;;;;;;;4.73;3.03;;;28.90;99.90;;;;;;5042961;28;20513;-80
2022/06/20 13:45:54;;;;;;;4.43;3.40;;;28.80;99.90;;;;;;5042649;28;20486;-80